createdAt,value
2022-11-21T00:01:18.757Z,39.58
2022-11-21T00:03:46.953Z,44.95
2022-11-21T00:06:15.276Z,47.97
2022-11-21T00:08:46.236Z,45.45
2022-11-21T00:11:14.331Z,47.45
2022-11-21T00:13:43.057Z,51.10
2022-11-21T00:16:13.345Z,52.03
2022-11-21T00:18:42.118Z,50.47
2022-11-21T00:21:12.933Z,42.22
2022-11-21T00:23:40.973Z,41.85
2022-11-21T00:26:12.141Z,45.45
2022-11-21T00:28:40.343Z,49.47
2022-11-21T00:31:08.882Z,40.55
2022-11-21T00:33:38.925Z,39.60
2022-11-21T00:36:08.762Z,44.67
2022-11-21T00:38:36.719Z,46.47
2022-11-21T00:41:04.673Z,42.60
2022-11-21T00:43:34.013Z,43.35
2022-11-21T00:46:03.106Z,43.90
2022-11-21T00:48:32.404Z,46.55
2022-11-21T00:51:01.484Z,42.22
2022-11-21T00:53:30.205Z,45.53
2022-11-21T00:55:58.685Z,37.75
2022-11-21T00:58:26.913Z,42.38
2022-11-21T01:01:04.382Z,46.45
2022-11-21T01:03:33.900Z,42.47
2022-11-21T01:06:06.970Z,39.00
2022-11-21T01:08:37.324Z,38.20
2022-11-21T01:11:05.648Z,43.58
2022-11-21T01:13:34.294Z,36.45
2022-11-21T01:16:07.921Z,39.22
2022-11-21T01:18:36.467Z,40.95
2022-11-21T01:21:05.953Z,43.00
2022-11-21T01:23:33.954Z,38.58
2022-11-21T01:26:06.176Z,37.90
2022-11-21T01:28:34.335Z,38.30
2022-11-21T01:31:08.542Z,49.80
2022-11-21T01:33:37.445Z,35.40
2022-11-21T01:36:13.151Z,41.65
2022-11-21T01:38:42.335Z,39.88
2022-11-21T01:41:10.894Z,40.25
2022-11-21T01:43:38.919Z,37.47
2022-11-21T01:46:13.506Z,42.60
2022-11-21T01:48:46.188Z,39.65
2022-11-21T01:51:20.393Z,42.35
2022-11-21T01:53:54.087Z,36.72
2022-11-21T01:56:22.997Z,42.65
2022-11-21T01:58:53.641Z,44.17
2022-11-21T02:01:23.160Z,48.15
2022-11-21T02:03:54.041Z,39.03
2022-11-21T02:06:22.253Z,34.00
2022-11-21T02:08:50.595Z,41.42
2022-11-21T02:11:27.455Z,37.78
2022-11-21T02:13:56.520Z,43.03
2022-11-21T02:16:27.176Z,44.97
2022-11-21T02:18:55.532Z,37.40
2022-11-21T02:21:33.744Z,36.13
2022-11-21T02:24:05.939Z,49.47
2022-11-21T02:26:35.807Z,51.70
2022-11-21T02:29:03.706Z,40.30
2022-11-21T02:31:31.633Z,40.20
2022-11-21T02:33:59.504Z,38.50
2022-11-21T02:36:42.200Z,47.67
2022-11-21T02:39:14.526Z,42.75
2022-11-21T02:41:49.740Z,40.58
2022-11-21T02:46:50.900Z,41.25
2022-11-21T02:49:25.578Z,47.70
2022-11-21T02:51:53.497Z,46.85
2022-11-21T02:54:21.415Z,45.95
2022-11-21T02:56:50.722Z,43.67
2022-11-21T02:59:18.635Z,46.33
2022-11-21T03:01:46.616Z,40.53
2022-11-21T03:04:14.529Z,40.92
2022-11-21T03:06:42.449Z,44.88
2022-11-21T03:09:10.287Z,38.15
2022-11-21T03:11:38.198Z,48.97
2022-11-21T03:14:07.498Z,38.42
2022-11-21T03:16:35.439Z,34.63
2022-11-21T03:19:03.513Z,37.53
2022-11-21T03:21:31.429Z,40.63
2022-11-21T03:23:59.298Z,37.50
2022-11-21T03:26:27.224Z,42.03
2022-11-21T03:28:55.139Z,38.70
2022-11-21T03:31:24.387Z,38.03
2022-11-21T03:33:52.267Z,34.63
2022-11-21T03:36:20.125Z,39.97
2022-11-21T03:38:48.022Z,43.00
2022-11-21T03:41:30.794Z,45.42
2022-11-21T03:48:07.571Z,45.97
2022-11-21T03:50:35.449Z,42.13
2022-11-21T03:53:03.385Z,38.15
2022-11-21T03:55:31.260Z,38.17
2022-11-21T03:57:59.116Z,41.45
2022-11-21T04:00:27.051Z,42.95
2022-11-21T04:02:54.989Z,47.72
2022-11-21T04:05:24.259Z,47.08
2022-11-21T04:07:53.905Z,42.47
2022-11-21T04:10:21.970Z,42.65
2022-11-21T04:12:49.834Z,44.90
2022-11-21T04:15:17.881Z,48.15
2022-11-21T04:17:45.812Z,45.92
2022-11-21T04:20:13.716Z,39.33
2022-11-21T04:22:43.910Z,41.72
2022-11-21T04:25:13.678Z,46.33
2022-11-21T04:27:41.570Z,35.63
2022-11-21T04:30:10.463Z,40.30
2022-11-21T04:32:38.368Z,37.03
2022-11-21T04:35:07.266Z,40.05
2022-11-21T04:37:35.386Z,38.33
2022-11-21T04:40:05.294Z,29.95
2022-11-21T04:42:33.158Z,34.47
2022-11-21T04:45:01.069Z,27.67
2022-11-21T04:47:28.995Z,25.20
2022-11-21T04:49:56.898Z,27.50
2022-11-21T04:52:24.835Z,23.73
2022-11-21T04:54:52.940Z,26.30
2022-11-21T04:57:22.320Z,23.20
2022-11-21T04:59:50.347Z,21.98
2022-11-21T05:02:18.257Z,22.30
2022-11-21T05:04:46.142Z,17.02
2022-11-21T05:07:14.184Z,16.63
2022-11-21T05:09:42.223Z,16.00
2022-11-21T05:12:28.525Z,16.42
2022-11-21T05:14:58.063Z,14.05
2022-11-21T05:17:26.000Z,14.43
2022-11-21T05:19:53.881Z,13.10
2022-11-21T05:22:21.947Z,19.08
2022-11-21T05:24:49.884Z,11.35
2022-11-21T05:27:17.886Z,11.55
2022-11-21T05:29:46.019Z,12.95
2022-11-21T05:32:15.401Z,15.50
2022-11-21T05:34:43.396Z,11.95
2022-11-21T05:37:11.385Z,9.85
2022-11-21T05:39:39.408Z,10.93
2022-11-21T05:42:07.355Z,7.93
2022-11-21T05:44:34.284Z,9.00
2022-11-21T05:47:02.622Z,7.22
2022-11-21T05:49:31.952Z,9.68
2022-11-21T05:51:59.885Z,8.95
2022-11-21T05:54:28.191Z,11.65
2022-11-21T05:56:56.297Z,10.73
2022-11-21T05:59:24.172Z,9.10
2022-11-21T06:02:14.728Z,9.75
2022-11-21T06:04:44.090Z,10.23
2022-11-21T06:07:12.040Z,11.60
2022-11-21T06:09:39.971Z,10.65
2022-11-21T06:12:08.105Z,10.23
2022-11-21T06:14:36.324Z,9.15
2022-11-21T06:17:04.377Z,11.95
2022-11-21T06:19:32.345Z,9.45
2022-11-21T06:22:01.605Z,9.75
2022-11-21T06:24:29.693Z,11.88
2022-11-21T06:26:58.661Z,12.50
2022-11-21T06:29:26.721Z,7.13
2022-11-21T06:31:55.953Z,8.82
2022-11-21T06:34:24.013Z,11.20
2022-11-21T06:36:52.011Z,9.77
2022-11-21T06:39:21.923Z,11.32
2022-11-21T06:41:51.320Z,10.00
2022-11-21T06:44:19.513Z,12.10
2022-11-21T06:46:51.208Z,10.10
2022-11-21T06:49:19.608Z,8.60
2022-11-21T06:51:47.647Z,12.98
2022-11-21T06:54:17.089Z,17.08
2022-11-21T06:56:46.827Z,70.13
2022-11-21T06:59:14.730Z,12.95
2022-11-21T07:01:42.744Z,29.35
2022-11-21T07:04:10.746Z,20.05
2022-11-21T07:06:38.674Z,23.48
2022-11-21T07:11:56.004Z,18.45
2022-11-21T07:14:22.971Z,20.35
2022-11-21T07:16:50.953Z,45.40
2022-11-21T07:19:18.983Z,23.40
2022-11-21T07:21:47.050Z,18.25
2022-11-21T07:24:15.031Z,19.88
2022-11-21T07:26:43.135Z,21.25
2022-11-21T07:29:12.371Z,20.80
2022-11-21T07:31:40.467Z,26.63
2022-11-21T07:34:08.413Z,17.70
2022-11-21T07:36:36.530Z,24.50
2022-11-21T07:39:04.702Z,20.92
2022-11-21T07:41:32.694Z,21.73
2022-11-21T07:44:00.681Z,27.20
2022-11-21T07:46:30.023Z,28.10
2022-11-21T07:49:02.914Z,22.77
2022-11-21T07:51:31.598Z,27.75
2022-11-21T07:53:59.555Z,24.27
2022-11-21T07:56:27.563Z,24.00
2022-11-21T07:58:55.488Z,25.20
2022-11-21T08:01:23.518Z,25.17
2022-11-21T08:03:52.963Z,21.15
2022-11-21T08:06:20.932Z,22.83
2022-11-21T08:08:51.490Z,24.50
2022-11-21T08:11:19.435Z,26.38
2022-11-21T08:13:47.554Z,24.92
2022-11-21T08:16:15.479Z,24.40
2022-11-21T08:18:43.442Z,24.15
2022-11-21T08:21:15.765Z,31.90
2022-11-21T08:23:49.878Z,36.42
2022-11-21T08:26:18.605Z,27.60
2022-11-21T08:28:46.619Z,31.52
2022-11-21T08:31:14.642Z,29.52
2022-11-21T08:33:42.714Z,27.58
2022-11-21T08:36:12.608Z,26.65
2022-11-21T08:38:40.620Z,27.88
2022-11-21T08:41:26.157Z,24.10
2022-11-21T08:46:21.985Z,26.30
2022-11-21T08:48:50.031Z,24.65
2022-11-21T08:51:19.412Z,30.00
2022-11-21T08:53:47.348Z,26.38
2022-11-21T08:56:15.348Z,30.33
2022-11-21T08:58:43.291Z,32.60
2022-11-21T09:01:11.261Z,29.90
2022-11-21T09:03:41.389Z,31.45
2022-11-21T09:06:09.472Z,27.40
2022-11-21T09:08:38.798Z,28.10
2022-11-21T09:11:07.761Z,27.38
2022-11-21T09:13:36.469Z,25.98
2022-11-21T09:16:22.571Z,28.27
2022-11-21T09:18:53.602Z,27.35
2022-11-21T09:21:22.186Z,38.63
2022-11-21T09:23:51.400Z,38.53
2022-11-21T09:26:19.425Z,30.05
2022-11-21T09:28:47.372Z,28.63
2022-11-21T09:31:15.284Z,36.55
2022-11-21T09:33:43.159Z,31.00
2022-11-21T09:36:11.736Z,29.23
2022-11-21T09:38:40.856Z,32.83
2022-11-21T09:41:42.281Z,32.63
2022-11-21T09:44:17.277Z,35.20
2022-11-21T09:46:49.105Z,41.60
2022-11-21T09:49:18.469Z,34.03
2022-11-21T09:51:46.989Z,34.55
2022-11-21T09:54:20.314Z,37.05
2022-11-21T09:56:50.244Z,39.88
2022-11-21T09:59:33.292Z,36.20
2022-11-21T10:02:01.283Z,36.67
2022-11-21T10:04:29.467Z,32.50
2022-11-21T10:07:03.026Z,33.35
2022-11-21T10:09:45.068Z,34.20
2022-11-21T10:12:38.681Z,31.25
2022-11-21T10:15:19.957Z,32.45
2022-11-21T10:17:59.411Z,34.15
2022-11-21T10:20:37.624Z,33.42
2022-11-21T10:23:22.659Z,33.17
2022-11-21T10:25:57.174Z,35.30
2022-11-21T10:28:38.908Z,36.92
2022-11-21T10:31:11.293Z,37.50
2022-11-21T10:33:40.472Z,33.40
2022-11-21T10:36:14.825Z,34.22
2022-11-21T10:38:45.486Z,29.20
2022-11-21T10:41:18.808Z,31.17
2022-11-21T10:44:12.679Z,28.13
2022-11-21T10:46:40.648Z,28.70
2022-11-21T10:49:15.310Z,30.52
2022-11-21T10:51:49.182Z,30.92
2022-11-21T10:54:36.419Z,29.02
2022-11-21T10:57:12.683Z,35.22
2022-11-21T10:59:42.085Z,34.38
2022-11-21T11:02:25.477Z,37.22
2022-11-21T11:05:19.688Z,40.95
2022-11-21T11:08:02.367Z,35.97
2022-11-21T11:10:30.703Z,35.75
2022-11-21T11:13:44.616Z,34.05
2022-11-21T11:18:38.575Z,31.13
2022-11-21T11:21:16.658Z,33.30
2022-11-21T11:23:44.859Z,25.70
2022-11-21T11:26:23.043Z,30.88
2022-11-21T11:28:51.056Z,31.83
2022-11-21T11:31:20.437Z,30.20
2022-11-21T11:33:54.295Z,31.80
2022-11-21T11:36:37.167Z,34.65
2022-11-21T11:39:18.891Z,35.55
2022-11-21T11:42:26.266Z,39.70
2022-11-21T11:45:24.165Z,39.22
2022-11-21T11:47:56.446Z,37.58
2022-11-21T11:50:31.791Z,41.95
2022-11-21T11:53:05.579Z,40.97
2022-11-21T11:55:38.444Z,41.75
2022-11-21T11:58:14.330Z,38.92
2022-11-21T12:00:46.821Z,36.58
2022-11-21T12:03:20.461Z,38.78
2022-11-21T12:06:09.429Z,38.45
2022-11-21T12:08:45.473Z,35.03
2022-11-21T12:11:39.675Z,36.22
2022-11-21T12:14:39.390Z,34.13
2022-11-21T12:17:11.276Z,32.20
2022-11-21T12:19:41.136Z,32.67
2022-11-21T12:22:11.839Z,35.92
2022-11-21T12:24:43.129Z,39.63
2022-11-21T12:27:24.919Z,43.35
2022-11-21T12:30:08.072Z,35.83
2022-11-21T12:32:52.820Z,35.60
2022-11-21T12:35:37.021Z,45.97
2022-11-21T12:38:17.121Z,46.40
2022-11-21T12:40:55.513Z,46.17
2022-11-21T12:43:34.312Z,45.60
2022-11-21T12:46:11.598Z,37.72
2022-11-21T12:49:10.759Z,38.38
2022-11-21T12:52:28.081Z,42.75
2022-11-21T12:55:19.087Z,41.92
2022-11-21T12:58:02.629Z,40.47
2022-11-21T13:00:39.707Z,36.33
2022-11-21T13:03:45.358Z,35.83
2022-11-21T13:06:17.745Z,29.27
2022-11-21T13:08:49.382Z,36.55
2022-11-21T13:11:46.267Z,33.22
2022-11-21T13:14:20.451Z,31.50
2022-11-21T13:16:55.806Z,30.67
2022-11-21T13:19:29.174Z,33.25
2022-11-21T13:21:57.360Z,29.55
2022-11-21T13:24:59.135Z,32.55
2022-11-21T13:27:38.773Z,25.27
2022-11-21T13:30:23.337Z,26.17
2022-11-21T13:32:52.565Z,27.02
2022-11-21T13:36:06.744Z,29.73
2022-11-21T13:39:32.403Z,26.77
2022-11-21T13:42:27.542Z,29.48
2022-11-21T13:44:56.115Z,28.63
2022-11-21T13:48:01.939Z,31.52
2022-11-21T13:51:04.068Z,35.22
2022-11-21T13:54:09.215Z,29.63
2022-11-21T13:56:42.601Z,30.40
2022-11-21T13:59:31.252Z,32.90
2022-11-21T14:02:29.643Z,32.92
2022-11-21T14:05:13.416Z,32.05
2022-11-21T14:07:43.129Z,37.13
2022-11-21T14:10:30.937Z,30.73
2022-11-21T14:12:59.731Z,32.40
2022-11-21T14:15:36.171Z,33.80
2022-11-21T14:18:04.927Z,32.95
2022-11-21T14:20:47.511Z,31.38
2022-11-21T14:23:18.567Z,36.22
2022-11-21T14:25:50.169Z,32.42
2022-11-21T14:28:25.196Z,36.22
2022-11-21T14:30:59.586Z,47.35
2022-11-21T14:33:30.143Z,38.90
2022-11-21T14:36:02.335Z,32.05
2022-11-21T14:38:32.106Z,29.73
2022-11-21T14:41:29.515Z,36.78
2022-11-21T14:44:06.953Z,32.30
2022-11-21T14:46:37.899Z,39.22
2022-11-21T14:49:25.516Z,34.97
2022-11-21T14:51:59.768Z,31.40
2022-11-21T14:54:31.261Z,37.55
2022-11-21T14:57:01.231Z,31.67
2022-11-21T14:59:32.357Z,35.42
2022-11-21T15:02:03.934Z,38.35
2022-11-21T15:04:34.193Z,38.25
2022-11-21T15:07:02.676Z,43.53
2022-11-21T15:10:26.551Z,41.55
2022-11-21T15:12:26.854Z,42.78
2022-11-21T15:14:59.765Z,30.08
2022-11-21T15:17:29.994Z,42.05
2022-11-21T15:20:19.980Z,39.35
2022-11-21T15:22:58.360Z,42.53
2022-11-21T15:25:41.673Z,44.58
2022-11-21T15:28:15.768Z,44.00
2022-11-21T15:30:45.973Z,46.72
2022-11-21T15:33:19.486Z,48.55
2022-11-21T15:35:50.391Z,38.00
2022-11-21T15:38:27.456Z,44.47
2022-11-21T15:41:04.308Z,57.78
2022-11-21T15:43:40.742Z,48.15
2022-11-21T15:46:17.644Z,44.22
2022-11-21T15:48:51.800Z,47.58
2022-11-21T15:51:37.812Z,42.40
2022-11-21T15:54:13.078Z,44.38
2022-11-21T15:56:41.389Z,39.90
2022-11-21T15:59:09.681Z,48.88
2022-11-21T16:01:38.041Z,40.38
2022-11-21T16:04:09.381Z,44.92
2022-11-21T16:06:39.551Z,38.70
2022-11-21T16:09:07.483Z,39.55
2022-11-21T16:11:38.113Z,49.33
2022-11-21T16:14:07.617Z,43.45
2022-11-21T16:16:42.999Z,45.90
2022-11-21T16:19:13.838Z,44.72
2022-11-21T16:21:42.139Z,44.90
2022-11-21T16:24:10.337Z,42.42
2022-11-21T16:26:38.554Z,45.90
2022-11-21T16:29:06.564Z,45.15
2022-11-21T16:31:34.960Z,44.53
2022-11-21T16:34:03.181Z,44.88
2022-11-21T16:36:33.804Z,41.35
2022-11-21T16:39:08.802Z,45.75
2022-11-21T16:41:41.006Z,45.08
2022-11-21T16:44:13.492Z,47.35
2022-11-21T16:46:43.910Z,63.03
2022-11-21T16:49:12.144Z,96.75
2022-11-21T16:51:41.433Z,61.78
2022-11-21T16:54:09.746Z,52.88
2022-11-21T16:56:38.143Z,53.08
2022-11-21T16:59:06.076Z,58.75
2022-11-21T17:01:34.138Z,60.05
2022-11-21T17:04:02.111Z,55.90
2022-11-21T17:06:31.842Z,44.63
2022-11-21T17:09:02.320Z,66.10
2022-11-21T17:11:32.034Z,57.75
2022-11-21T17:14:03.072Z,42.30
2022-11-21T17:16:32.055Z,45.63
2022-11-21T17:19:01.741Z,42.20
2022-11-21T17:21:30.702Z,36.22
2022-11-21T17:23:58.640Z,42.67
2022-11-21T17:26:29.768Z,38.97
2022-11-21T17:28:59.081Z,42.30
2022-11-21T17:31:28.004Z,45.65
2022-11-21T17:33:57.664Z,39.08
2022-11-21T17:36:27.268Z,43.70
2022-11-21T17:38:56.013Z,38.63
2022-11-21T17:41:25.245Z,50.15
2022-11-21T17:43:57.850Z,42.22
2022-11-21T17:46:26.870Z,54.67
2022-11-21T17:48:58.265Z,44.38
2022-11-21T17:51:28.886Z,43.78
2022-11-21T17:53:57.106Z,42.95
2022-11-21T17:56:27.074Z,42.40
2022-11-21T17:58:56.707Z,45.08
2022-11-21T18:01:24.799Z,45.00
2022-11-21T18:03:56.391Z,46.00
2022-11-21T18:06:24.803Z,47.83
2022-11-21T18:08:52.752Z,48.28
2022-11-21T18:11:22.239Z,45.67
2022-11-21T18:13:50.623Z,46.42
2022-11-21T18:16:21.827Z,40.80
2022-11-21T18:18:50.723Z,40.63
2022-11-21T18:21:20.505Z,36.50
2022-11-21T18:23:48.977Z,45.90
2022-11-21T18:26:20.483Z,44.40
2022-11-21T18:29:01.842Z,38.70
2022-11-21T18:31:39.474Z,44.10
2022-11-21T18:34:07.802Z,46.65
2022-11-21T18:36:36.102Z,51.95
2022-11-21T18:39:10.645Z,41.50
2022-11-21T18:41:41.510Z,50.33
2022-11-21T18:44:09.788Z,68.68
2022-11-21T18:46:39.549Z,52.78
2022-11-21T18:49:08.457Z,52.65
2022-11-21T18:51:38.247Z,60.95
2022-11-21T18:54:09.603Z,55.10
2022-11-21T18:56:39.007Z,59.97
2022-11-21T18:59:07.373Z,72.53
2022-11-21T19:01:36.923Z,80.47
2022-11-21T19:04:06.524Z,66.10
2022-11-21T19:06:34.500Z,81.68
2022-11-21T19:09:02.419Z,121.00
2022-11-21T19:11:31.058Z,93.50
2022-11-21T19:14:00.424Z,69.68
2022-11-21T19:16:31.028Z,64.88
2022-11-21T19:21:51.835Z,46.45
2022-11-21T19:24:20.502Z,49.40
2022-11-21T19:26:50.419Z,60.58
2022-11-21T19:29:19.397Z,56.90
2022-11-21T19:31:47.870Z,59.70
2022-11-21T19:34:16.911Z,135.65
2022-11-21T19:36:46.022Z,75.95
2022-11-21T19:39:17.573Z,57.47
2022-11-21T19:41:45.888Z,49.05
2022-11-21T19:44:14.337Z,58.88
2022-11-21T19:46:42.665Z,78.03
2022-11-21T19:49:13.317Z,68.95
2022-11-21T19:51:43.072Z,62.97
2022-11-21T19:54:13.213Z,76.60
2022-11-21T19:56:43.192Z,71.00
2022-11-21T19:59:13.568Z,52.35
2022-11-21T20:01:41.934Z,61.40
2022-11-21T20:04:11.642Z,58.00
2022-11-21T20:06:41.442Z,68.72
2022-11-21T20:09:11.693Z,78.38
2022-11-21T20:11:42.450Z,72.30
2022-11-21T20:14:16.305Z,91.97
2022-11-21T20:16:49.710Z,108.78
2022-11-21T20:19:19.820Z,94.07
2022-11-21T20:21:48.412Z,54.63
2022-11-21T20:24:17.122Z,91.03
2022-11-21T20:26:47.071Z,69.95
2022-11-21T20:29:15.598Z,62.15
2022-11-21T20:31:44.365Z,45.45
2022-11-21T20:34:13.756Z,58.05
2022-11-21T20:36:42.515Z,56.38
2022-11-21T20:39:14.743Z,64.55
2022-11-21T20:41:43.116Z,60.67
2022-11-21T20:45:07.285Z,48.35
2022-11-21T20:47:02.892Z,51.53
2022-11-21T20:49:31.210Z,45.70
2022-11-21T20:54:47.252Z,55.58
2022-11-21T20:57:15.776Z,57.33
2022-11-21T20:59:45.316Z,58.08
2022-11-21T21:02:14.335Z,54.97
2022-11-21T21:04:42.669Z,50.45
2022-11-21T21:07:10.875Z,84.10
2022-11-21T21:09:38.994Z,38.80
2022-11-21T21:12:07.176Z,41.80
2022-11-21T21:14:35.093Z,51.75
2022-11-21T21:17:04.391Z,48.90
2022-11-21T21:19:32.560Z,52.05
2022-11-21T21:22:00.673Z,42.42
2022-11-21T21:24:28.727Z,42.28
2022-11-21T21:26:56.694Z,40.72
2022-11-21T21:29:24.616Z,42.67
2022-11-21T21:31:53.057Z,40.85
2022-11-21T21:34:23.501Z,58.28
2022-11-21T21:36:51.773Z,46.53
2022-11-21T21:39:19.703Z,41.20
2022-11-21T21:41:48.138Z,40.42
2022-11-21T21:44:16.702Z,42.28
2022-11-21T21:46:45.080Z,33.30
2022-11-21T21:49:13.153Z,34.28
2022-11-21T21:51:42.497Z,39.72
2022-11-21T21:54:18.000Z,40.83
2022-11-21T21:56:46.909Z,33.92
2022-11-21T21:59:15.434Z,30.13
2022-11-21T22:01:43.897Z,29.88
2022-11-21T22:04:13.355Z,42.00
2022-11-21T22:06:42.742Z,56.63
2022-11-21T22:09:10.757Z,46.33
2022-11-21T22:11:39.484Z,38.70
2022-11-21T22:14:11.296Z,37.40
2022-11-21T22:16:39.472Z,40.00
2022-11-21T22:19:07.564Z,51.50
2022-11-21T22:21:36.837Z,38.95
2022-11-21T22:24:27.700Z,37.50
2022-11-21T22:26:55.875Z,119.30
2022-11-21T22:29:23.832Z,46.35
2022-11-21T22:31:51.867Z,44.60
2022-11-21T22:34:19.768Z,31.95
2022-11-21T22:36:47.744Z,35.63
2022-11-21T22:39:17.956Z,40.08
2022-11-21T22:41:46.030Z,42.20
2022-11-21T22:44:14.063Z,38.15
2022-11-21T22:46:41.995Z,33.60
2022-11-21T22:49:09.872Z,31.25
2022-11-21T22:51:37.843Z,39.97
2022-11-21T22:54:05.910Z,36.42
2022-11-21T22:56:35.205Z,37.83
2022-11-21T22:59:03.148Z,48.13
2022-11-21T23:01:32.949Z,50.17
2022-11-21T23:04:01.361Z,48.15
2022-11-21T23:06:29.339Z,42.95
2022-11-21T23:08:58.044Z,38.97
2022-11-21T23:11:27.742Z,48.28
2022-11-21T23:13:57.669Z,32.83
2022-11-21T23:16:26.586Z,36.33
2022-11-21T23:18:55.043Z,33.38
2022-11-21T23:21:23.421Z,26.67
2022-11-21T23:23:51.318Z,37.53
2022-11-21T23:26:20.265Z,28.15
2022-11-21T23:28:48.181Z,24.45
2022-11-21T23:31:17.440Z,29.00
2022-11-21T23:33:45.406Z,31.08
2022-11-21T23:36:13.322Z,36.30
2022-11-21T23:38:41.268Z,32.53
2022-11-21T23:41:09.270Z,26.77
2022-11-21T23:43:37.243Z,37.58
2022-11-21T23:46:05.475Z,35.72
2022-11-21T23:48:34.819Z,34.90
2022-11-21T23:51:02.724Z,33.03
2022-11-21T23:53:30.645Z,33.72
2022-11-21T23:55:58.694Z,36.35
2022-11-21T23:58:26.625Z,27.27
